Delray Beach, FL (33448)

4:05 AM EDT on July 25, 2016 (GMT -0400)
SFWMD | | Change Station

Elev 10 ft 26.50 °N, 80.22 °W | Updated 50 minutes ago

Partly Cloudy
Partly Cloudy
76 °F
Feels Like 75 °F
N
1
Wind Variable Wind from ESE
Gusts 2.0 mph

Today
High -- | Low -- °F
--% Chance of Precip.
Yesterday
High -- | Low -- °F
Precip. -- in
Pressure 30.04 in
Visibility 10.0 miles
Clouds Few 2100 ft
Heat Index 75 °F
Dew Point 75 °F
Humidity 98%
Rainfall in
Snow Depth Not available.
6:42 AM 8:11 PM
Waning Gibbous, 68% visible
METAR KPMP 250753Z AUTO 13003KT 10SM FEW021 27/23 A3003 RMK AO2 SLP170 T02720233
Pressure 30.04 in
Visibility 10.0 miles
Clouds Few 2100 ft
Heat Index 75 °F
Dew Point 75 °F
Humidity 98%
Rainfall in
Snow Depth Not available.
6:42 AM 8:11 PM
Waning Gibbous, 68% visible
METAR KPMP 250753Z AUTO 13003KT 10SM FEW021 27/23 A3003 RMK AO2 SLP170 T02720233

10-Day Weather Forecast

Almanac

Astronomy

Jul. 25, 2016 Rise Set
Actual Time
Civil Twilight
Nautical Twilight
Astronomical Twilight
Moon
Length of Visible Light
Length of Day
Tomorrow will be .
, % of the Moon is Illuminated

Today's Extremes

State Highs State Lows

Community

WunderPhotos

Upload Photos

1,927,274 photos uploaded!

WunderBlog® & News

Nearby

Air Quality

  Air Quality AQ Index Pollutant
Not available.

Snow Depth

Station Depth Elevation

Earthquake Activity

City Distance Mag. Time & Date
Minimum magnitude displayed is 2.5.

Coastal Water Temperatures

Place Temperature

Stations

Nearby Weather Stations

Station Location Temp. Windchill Dew Point Humidity Wind Precip. Elev Updated Type
                   

Watches & Warnings

There are currently no watches in effect.